sensor_id;sensor_type;location;lat;lon;timestamp;pressure;altitude;pressure_sealevel;temperature;humidity
81509;BME280;70930;52.412;13.554;2024-03-22T00:00:46;101654.41;;;7.76;87.00
81509;BME280;70930;52.412;13.554;2024-03-22T00:03:12;101646.44;;;7.67;87.51
81509;BME280;70930;52.412;13.554;2024-03-22T00:05:37;101637.13;;;7.72;87.65
81509;BME280;70930;52.412;13.554;2024-03-22T00:08:03;101636.72;;;7.77;87.20
81509;BME280;70930;52.412;13.554;2024-03-22T00:10:28;101630.19;;;7.81;86.42
81509;BME280;70930;52.412;13.554;2024-03-22T00:12:53;101634.78;;;7.79;87.61
81509;BME280;70930;52.412;13.554;2024-03-22T00:15:19;101630.19;;;7.81;86.49
81509;BME280;70930;52.412;13.554;2024-03-22T00:17:44;101631.19;;;7.80;86.52
81509;BME280;70930;52.412;13.554;2024-03-22T00:20:10;101627.53;;;7.71;87.54
81509;BME280;70930;52.412;13.554;2024-03-22T00:22:35;101621.16;;;7.83;86.65
81509;BME280;70930;52.412;13.554;2024-03-22T00:25:01;101618.22;;;7.77;87.41
81509;BME280;70930;52.412;13.554;2024-03-22T00:27:26;101608.63;;;7.85;87.32
81509;BME280;70930;52.412;13.554;2024-03-22T00:29:54;101608.34;;;7.79;87.64
81509;BME280;70930;52.412;13.554;2024-03-22T00:32:20;101608.47;;;7.77;88.20
81509;BME280;70930;52.412;13.554;2024-03-22T00:34:45;101607.69;;;7.86;87.25
81509;BME280;70930;52.412;13.554;2024-03-22T00:37:10;101598.03;;;7.85;87.48
81509;BME280;70930;52.412;13.554;2024-03-22T00:39:39;101607.22;;;7.81;88.28
81509;BME280;70930;52.412;13.554;2024-03-22T00:42:04;101582.56;;;7.61;89.04
81509;BME280;70930;52.412;13.554;2024-03-22T00:44:30;101590.78;;;7.78;87.69
81509;BME280;70930;52.412;13.554;2024-03-22T00:46:55;101590.41;;;7.82;88.12
81509;BME280;70930;52.412;13.554;2024-03-22T00:49:20;101595.13;;;7.79;88.59
81509;BME280;70930;52.412;13.554;2024-03-22T00:51:46;101593.84;;;7.73;88.79
81509;BME280;70930;52.412;13.554;2024-03-22T00:54:12;101587.88;;;7.71;89.04
81509;BME280;70930;52.412;13.554;2024-03-22T00:56:38;101591.94;;;7.85;89.10
81509;BME280;70930;52.412;13.554;2024-03-22T00:59:03;101586.78;;;7.83;89.05
81509;BME280;70930;52.412;13.554;2024-03-22T01:01:28;101593.31;;;7.79;88.60
81509;BME280;70930;52.412;13.554;2024-03-22T01:03:53;101593.06;;;7.82;88.75
81509;BME280;70930;52.412;13.554;2024-03-22T01:06:19;101596.38;;;7.75;89.30
81509;BME280;70930;52.412;13.554;2024-03-22T01:08:50;101582.34;;;7.84;88.58
81509;BME280;70930;52.412;13.554;2024-03-22T01:11:17;101582.47;;;7.92;88.48
81509;BME280;70930;52.412;13.554;2024-03-22T01:13:42;101580.66;;;7.93;88.51
81509;BME280;70930;52.412;13.554;2024-03-22T01:16:07;101561.75;;;7.97;88.00
81509;BME280;70930;52.412;13.554;2024-03-22T01:18:35;101564.25;;;7.89;88.79
81509;BME280;70930;52.412;13.554;2024-03-22T01:21:01;101565.50;;;8.04;88.39
81509;BME280;70930;52.412;13.554;2024-03-22T01:23:26;101562.75;;;8.06;88.20
81509;BME280;70930;52.412;13.554;2024-03-22T01:25:51;101551.44;;;8.04;88.09
81509;BME280;70930;52.412;13.554;2024-03-22T01:28:16;101543.66;;;8.02;87.99
81509;BME280;70930;52.412;13.554;2024-03-22T01:30:42;101548.41;;;7.99;88.24
81509;BME280;70930;52.412;13.554;2024-03-22T01:33:08;101553.69;;;8.08;88.25
81509;BME280;70930;52.412;13.554;2024-03-22T01:35:36;101538.94;;;7.86;89.32
81509;BME280;70930;52.412;13.554;2024-03-22T01:38:01;101541.13;;;7.81;89.54
81509;BME280;70930;52.412;13.554;2024-03-22T01:40:29;101545.59;;;7.91;89.27
81509;BME280;70930;52.412;13.554;2024-03-22T01:42:59;101550.59;;;7.94;89.14
81509;BME280;70930;52.412;13.554;2024-03-22T01:45:25;101551.88;;;7.99;89.65
81509;BME280;70930;52.412;13.554;2024-03-22T01:47:52;101535.72;;;7.83;89.30
81509;BME280;70930;52.412;13.554;2024-03-22T01:50:19;101543.78;;;7.91;89.79
81509;BME280;70930;52.412;13.554;2024-03-22T01:52:45;101530.56;;;7.91;90.04
81509;BME280;70930;52.412;13.554;2024-03-22T01:55:11;101514.13;;;7.78;89.96
81509;BME280;70930;52.412;13.554;2024-03-22T01:57:38;101521.50;;;7.84;90.37
81509;BME280;70930;52.412;13.554;2024-03-22T02:00:03;101514.56;;;7.93;89.58
81509;BME280;70930;52.412;13.554;2024-03-22T02:02:29;101523.75;;;7.98;90.37
81509;BME280;70930;52.412;13.554;2024-03-22T02:04:57;101503.84;;;7.84;90.04
81509;BME280;70930;52.412;13.554;2024-03-22T02:07:22;101504.91;;;7.53;91.81
81509;BME280;70930;52.412;13.554;2024-03-22T02:09:50;101501.88;;;7.77;91.09
81509;BME280;70930;52.412;13.554;2024-03-22T02:12:16;101516.25;;;7.74;91.27
81509;BME280;70930;52.412;13.554;2024-03-22T02:14:42;101502.28;;;7.82;91.41
81509;BME280;70930;52.412;13.554;2024-03-22T02:17:07;101503.41;;;7.70;92.06
81509;BME280;70930;52.412;13.554;2024-03-22T02:19:32;101488.94;;;7.74;91.29
81509;BME280;70930;52.412;13.554;2024-03-22T02:21:58;101506.63;;;7.83;91.06
81509;BME280;70930;52.412;13.554;2024-03-22T02:24:23;101495.22;;;7.82;92.03
81509;BME280;70930;52.412;13.554;2024-03-22T02:26:48;101508.56;;;7.81;92.49
81509;BME280;70930;52.412;13.554;2024-03-22T02:29:14;101485.34;;;7.75;92.43
81509;BME280;70930;52.412;13.554;2024-03-22T02:31:39;101487.53;;;7.70;93.15
81509;BME280;70930;52.412;13.554;2024-03-22T02:34:05;101499.81;;;7.80;93.57
81509;BME280;70930;52.412;13.554;2024-03-22T02:36:30;101479.06;;;7.85;92.20
81509;BME280;70930;52.412;13.554;2024-03-22T02:38:55;101481.97;;;7.73;92.40
81509;BME280;70930;52.412;13.554;2024-03-22T02:41:21;101490.19;;;7.70;93.41
81509;BME280;70930;52.412;13.554;2024-03-22T02:43:47;101482.94;;;7.62;93.76
81509;BME280;70930;52.412;13.554;2024-03-22T02:46:12;101471.00;;;7.68;93.45
81509;BME280;70930;52.412;13.554;2024-03-22T02:48:37;101462.22;;;7.57;94.02
81509;BME280;70930;52.412;13.554;2024-03-22T02:51:03;101456.78;;;7.49;94.98
81509;BME280;70930;52.412;13.554;2024-03-22T02:53:29;101465.44;;;7.51;94.28
81509;BME280;70930;52.412;13.554;2024-03-22T02:55:54;101466.09;;;7.53;94.71
81509;BME280;70930;52.412;13.554;2024-03-22T02:58:20;101458.63;;;7.68;94.28
81509;BME280;70930;52.412;13.554;2024-03-22T03:00:46;101458.91;;;7.55;94.47
81509;BME280;70930;52.412;13.554;2024-03-22T03:03:11;101449.72;;;7.59;94.70
81509;BME280;70930;52.412;13.554;2024-03-22T03:05:36;101445.94;;;7.52;94.07
81509;BME280;70930;52.412;13.554;2024-03-22T03:08:02;101429.38;;;7.41;94.28
81509;BME280;70930;52.412;13.554;2024-03-22T03:10:29;101439.56;;;7.55;94.02
81509;BME280;70930;52.412;13.554;2024-03-22T03:12:54;101442.31;;;7.53;93.90
81509;BME280;70930;52.412;13.554;2024-03-22T03:15:20;101439.13;;;7.50;93.91
81509;BME280;70930;52.412;13.554;2024-03-22T03:17:46;101430.50;;;7.48;94.42
81509;BME280;70930;52.412;13.554;2024-03-22T03:20:11;101430.25;;;7.51;94.30
81509;BME280;70930;52.412;13.554;2024-03-22T03:22:39;101412.69;;;7.40;94.16
81509;BME280;70930;52.412;13.554;2024-03-22T03:25:05;101428.13;;;7.45;93.85
81509;BME280;70930;52.412;13.554;2024-03-22T03:27:30;101416.16;;;7.50;93.89
81509;BME280;70930;52.412;13.554;2024-03-22T03:29:56;101404.06;;;7.57;93.08
81509;BME280;70930;52.412;13.554;2024-03-22T03:32:21;101414.06;;;7.73;91.93
81509;BME280;70930;52.412;13.554;2024-03-22T03:34:46;101395.03;;;7.60;91.76
81509;BME280;70930;52.412;13.554;2024-03-22T03:37:12;101403.53;;;7.63;92.90
81509;BME280;70930;52.412;13.554;2024-03-22T03:39:37;101383.75;;;7.58;92.59
81509;BME280;70930;52.412;13.554;2024-03-22T03:42:03;101381.41;;;7.55;92.17
81509;BME280;70930;52.412;13.554;2024-03-22T03:44:31;101371.13;;;7.52;92.87
81509;BME280;70930;52.412;13.554;2024-03-22T03:46:56;101368.75;;;7.68;91.75
81509;BME280;70930;52.412;13.554;2024-03-22T03:49:22;101377.09;;;7.63;92.31
81509;BME280;70930;52.412;13.554;2024-03-22T03:51:47;101364.56;;;7.56;92.40
81509;BME280;70930;52.412;13.554;2024-03-22T03:54:12;101365.28;;;7.48;92.83
81509;BME280;70930;52.412;13.554;2024-03-22T03:56:38;101366.81;;;7.51;92.56
81509;BME280;70930;52.412;13.554;2024-03-22T03:59:03;101370.41;;;7.69;91.12
81509;BME280;70930;52.412;13.554;2024-03-22T04:01:29;101359.25;;;7.66;91.28
81509;BME280;70930;52.412;13.554;2024-03-22T04:03:54;101362.63;;;7.68;91.62
81509;BME280;70930;52.412;13.554;2024-03-22T04:06:19;101357.72;;;7.73;91.41
81509;BME280;70930;52.412;13.554;2024-03-22T04:08:45;101346.38;;;7.33;93.28
81509;BME280;70930;52.412;13.554;2024-03-22T04:11:10;101349.84;;;7.63;91.87
81509;BME280;70930;52.412;13.554;2024-03-22T04:13:36;101341.59;;;7.66;90.94
81509;BME280;70930;52.412;13.554;2024-03-22T04:16:02;101345.38;;;7.54;92.61
81509;BME280;70930;52.412;13.554;2024-03-22T04:18:27;101350.81;;;7.52;92.33
81509;BME280;70930;52.412;13.554;2024-03-22T04:20:56;101348.56;;;7.67;91.24
81509;BME280;70930;52.412;13.554;2024-03-22T04:23:22;101339.78;;;7.76;91.57
81509;BME280;70930;52.412;13.554;2024-03-22T04:25:58;101323.53;;;7.42;92.33
81509;BME280;70930;52.412;13.554;2024-03-22T04:28:25;101330.22;;;7.36;93.29
81509;BME280;70930;52.412;13.554;2024-03-22T04:31:04;101325.50;;;7.40;92.64
81509;BME280;70930;52.412;13.554;2024-03-22T04:33:30;101322.28;;;7.56;92.33
81509;BME280;70930;52.412;13.554;2024-03-22T04:35:57;101325.63;;;7.58;91.14
81509;BME280;70930;52.412;13.554;2024-03-22T04:38:23;101322.41;;;7.54;92.58
81509;BME280;70930;52.412;13.554;2024-03-22T04:40:49;101332.56;;;7.69;91.14
81509;BME280;70930;52.412;13.554;2024-03-22T04:43:15;101329.09;;;7.68;91.65
81509;BME280;70930;52.412;13.554;2024-03-22T04:45:42;101308.94;;;7.48;92.66
81509;BME280;70930;52.412;13.554;2024-03-22T04:48:08;101310.31;;;7.61;90.76
81509;BME280;70930;52.412;13.554;2024-03-22T04:50:33;101300.69;;;7.70;90.90
81509;BME280;70930;52.412;13.554;2024-03-22T04:52:58;101295.97;;;7.64;91.38
81509;BME280;70930;52.412;13.554;2024-03-22T04:55:24;101298.78;;;7.62;91.81
81509;BME280;70930;52.412;13.554;2024-03-22T04:57:51;101293.09;;;7.38;92.79
81509;BME280;70930;52.412;13.554;2024-03-22T05:00:18;101274.06;;;7.25;92.73
81509;BME280;70930;52.412;13.554;2024-03-22T05:02:44;101284.63;;;7.25;92.98
81509;BME280;70930;52.412;13.554;2024-03-22T05:05:09;101284.34;;;7.37;92.63
81509;BME280;70930;52.412;13.554;2024-03-22T05:07:35;101275.75;;;7.35;92.47
81509;BME280;70930;52.412;13.554;2024-03-22T05:10:01;101284.50;;;7.36;92.41
81509;BME280;70930;52.412;13.554;2024-03-22T05:12:26;101284.22;;;7.39;92.37
81509;BME280;70930;52.412;13.554;2024-03-22T05:14:52;101284.47;;;7.46;92.33
81509;BME280;70930;52.412;13.554;2024-03-22T05:17:17;101285.28;;;7.46;91.92
81509;BME280;70930;52.412;13.554;2024-03-22T05:19:42;101270.81;;;7.50;92.29
81509;BME280;70930;52.412;13.554;2024-03-22T05:22:08;101276.66;;;7.54;90.99
81509;BME280;70930;52.412;13.554;2024-03-22T05:24:33;101266.78;;;7.56;89.92
81509;BME280;70930;52.412;13.554;2024-03-22T05:26:59;101267.34;;;7.59;90.50
81509;BME280;70930;52.412;13.554;2024-03-22T05:29:25;101269.16;;;7.49;90.91
81509;BME280;70930;52.412;13.554;2024-03-22T05:31:50;101261.63;;;7.64;90.77
81509;BME280;70930;52.412;13.554;2024-03-22T05:34:20;101257.44;;;7.61;89.87
81509;BME280;70930;52.412;13.554;2024-03-22T05:36:46;101242.72;;;7.59;90.33
81509;BME280;70930;52.412;13.554;2024-03-22T05:39:11;101250.22;;;7.63;91.28
81509;BME280;70930;52.412;13.554;2024-03-22T05:41:37;101245.31;;;7.78;90.07
81509;BME280;70930;52.412;13.554;2024-03-22T05:44:03;101244.50;;;7.68;90.26
81509;BME280;70930;52.412;13.554;2024-03-22T05:46:29;101235.94;;;7.84;90.00
81509;BME280;70930;52.412;13.554;2024-03-22T05:48:55;101236.13;;;7.82;88.77
81509;BME280;70930;52.412;13.554;2024-03-22T05:51:20;101242.34;;;7.91;89.44
81509;BME280;70930;52.412;13.554;2024-03-22T05:53:46;101246.19;;;7.97;89.15
81509;BME280;70930;52.412;13.554;2024-03-22T05:56:11;101247.88;;;7.98;89.37
81509;BME280;70930;52.412;13.554;2024-03-22T05:58:36;101238.69;;;8.02;89.12
81509;BME280;70930;52.412;13.554;2024-03-22T06:01:02;101227.09;;;8.03;88.71
81509;BME280;70930;52.412;13.554;2024-03-22T06:03:31;101234.69;;;8.16;88.08
81509;BME280;70930;52.412;13.554;2024-03-22T06:05:56;101217.94;;;7.97;88.51
81509;BME280;70930;52.412;13.554;2024-03-22T06:08:25;101224.31;;;8.04;88.01
81509;BME280;70930;52.412;13.554;2024-03-22T06:10:52;101214.06;;;8.19;88.76
81509;BME280;70930;52.412;13.554;2024-03-22T06:13:17;101215.16;;;8.26;88.31
81509;BME280;70930;52.412;13.554;2024-03-22T06:15:43;101209.41;;;8.03;88.63
81509;BME280;70930;52.412;13.554;2024-03-22T06:18:11;101216.34;;;8.32;87.78
81509;BME280;70930;52.412;13.554;2024-03-22T06:20:36;101200.47;;;8.32;87.85
81509;BME280;70930;52.412;13.554;2024-03-22T06:23:01;101202.28;;;8.41;87.82
81509;BME280;70930;52.412;13.554;2024-03-22T06:25:27;101197.69;;;8.33;87.45
81509;BME280;70930;52.412;13.554;2024-03-22T06:27:52;101206.59;;;8.42;87.76
81509;BME280;70930;52.412;13.554;2024-03-22T06:30:17;101209.03;;;8.26;86.22
81509;BME280;70930;52.412;13.554;2024-03-22T06:32:43;101201.94;;;8.44;85.12
81509;BME280;70930;52.412;13.554;2024-03-22T06:35:08;101196.72;;;8.34;85.46
81509;BME280;70930;52.412;13.554;2024-03-22T06:37:33;101199.19;;;8.46;85.51
81509;BME280;70930;52.412;13.554;2024-03-22T06:39:59;101188.06;;;8.32;85.34
81509;BME280;70930;52.412;13.554;2024-03-22T06:42:24;101191.78;;;8.22;86.42
81509;BME280;70930;52.412;13.554;2024-03-22T06:44:51;101183.88;;;8.40;85.38
81509;BME280;70930;52.412;13.554;2024-03-22T06:47:17;101182.59;;;8.44;84.62
81509;BME280;70930;52.412;13.554;2024-03-22T06:49:42;101190.31;;;8.55;84.43
81509;BME280;70930;52.412;13.554;2024-03-22T06:52:07;101184.25;;;8.45;83.19
81509;BME280;70930;52.412;13.554;2024-03-22T06:54:33;101181.59;;;8.45;84.32
81509;BME280;70930;52.412;13.554;2024-03-22T06:56:58;101199.16;;;8.64;84.41
81509;BME280;70930;52.412;13.554;2024-03-22T06:59:23;101180.03;;;8.52;84.30
81509;BME280;70930;52.412;13.554;2024-03-22T07:01:49;101183.22;;;8.55;83.86
81509;BME280;70930;52.412;13.554;2024-03-22T07:04:14;101174.38;;;8.65;84.09
81509;BME280;70930;52.412;13.554;2024-03-22T07:06:39;101165.03;;;8.60;83.67
81509;BME280;70930;52.412;13.554;2024-03-22T07:09:07;101170.25;;;8.88;83.03
81509;BME280;70930;52.412;13.554;2024-03-22T07:11:35;101163.38;;;8.59;83.93
81509;BME280;70930;52.412;13.554;2024-03-22T07:14:01;101172.50;;;8.57;84.32
81509;BME280;70930;52.412;13.554;2024-03-22T07:16:26;101164.91;;;8.62;84.54
81509;BME280;70930;52.412;13.554;2024-03-22T07:18:54;101165.50;;;8.74;84.20
81509;BME280;70930;52.412;13.554;2024-03-22T07:21:19;101172.28;;;8.94;84.27
81509;BME280;70930;52.412;13.554;2024-03-22T07:23:45;101168.69;;;9.03;82.98
81509;BME280;70930;52.412;13.554;2024-03-22T07:26:10;101145.16;;;8.92;83.34
81509;BME280;70930;52.412;13.554;2024-03-22T07:28:35;101147.69;;;9.02;84.90
81509;BME280;70930;52.412;13.554;2024-03-22T07:31:01;101148.50;;;9.02;83.18
81509;BME280;70930;52.412;13.554;2024-03-22T07:33:26;101155.94;;;8.99;83.33
81509;BME280;70930;52.412;13.554;2024-03-22T07:35:51;101160.75;;;9.03;84.25
81509;BME280;70930;52.412;13.554;2024-03-22T07:38:19;101148.00;;;9.25;83.19
81509;BME280;70930;52.412;13.554;2024-03-22T07:40:44;101149.00;;;9.24;82.36
81509;BME280;70930;52.412;13.554;2024-03-22T07:43:10;101146.13;;;9.43;81.85
81509;BME280;70930;52.412;13.554;2024-03-22T07:45:35;101154.94;;;9.52;82.10
81509;BME280;70930;52.412;13.554;2024-03-22T07:48:01;101150.69;;;9.33;81.77
81509;BME280;70930;52.412;13.554;2024-03-22T07:50:27;101155.78;;;9.52;80.87
81509;BME280;70930;52.412;13.554;2024-03-22T07:52:52;101144.16;;;9.53;81.51
81509;BME280;70930;52.412;13.554;2024-03-22T07:55:18;101145.84;;;9.63;81.65
81509;BME280;70930;52.412;13.554;2024-03-22T07:57:43;101143.59;;;9.68;81.16
81509;BME280;70930;52.412;13.554;2024-03-22T08:00:09;101142.03;;;9.57;81.43
81509;BME280;70930;52.412;13.554;2024-03-22T08:02:35;101138.72;;;9.55;81.05
81509;BME280;70930;52.412;13.554;2024-03-22T08:05:01;101133.78;;;9.60;81.14
81509;BME280;70930;52.412;13.554;2024-03-22T08:07:27;101138.38;;;9.58;82.19
81509;BME280;70930;52.412;13.554;2024-03-22T08:09:52;101135.59;;;9.59;81.38
81509;BME280;70930;52.412;13.554;2024-03-22T08:12:17;101135.06;;;9.56;81.59
81509;BME280;70930;52.412;13.554;2024-03-22T08:14:44;101132.94;;;9.59;81.36
81509;BME280;70930;52.412;13.554;2024-03-22T08:17:13;101142.25;;;9.64;80.72
81509;BME280;70930;52.412;13.554;2024-03-22T08:19:40;101142.78;;;9.75;80.40
81509;BME280;70930;52.412;13.554;2024-03-22T08:22:05;101134.16;;;9.73;80.69
81509;BME280;70930;52.412;13.554;2024-03-22T08:24:30;101115.13;;;9.86;79.57
81509;BME280;70930;52.412;13.554;2024-03-22T08:26:56;101114.97;;;9.88;80.15
81509;BME280;70930;52.412;13.554;2024-03-22T08:29:21;101102.19;;;9.75;79.10
81509;BME280;70930;52.412;13.554;2024-03-22T08:31:47;101120.13;;;9.97;78.73
81509;BME280;70930;52.412;13.554;2024-03-22T08:34:12;101114.13;;;9.79;79.29
81509;BME280;70930;52.412;13.554;2024-03-22T08:36:38;101123.94;;;9.95;79.04
81509;BME280;70930;52.412;13.554;2024-03-22T08:39:03;101119.31;;;10.05;78.69
81509;BME280;70930;52.412;13.554;2024-03-22T08:41:30;101110.34;;;10.06;77.28
81509;BME280;70930;52.412;13.554;2024-03-22T08:43:56;101111.56;;;10.20;77.62
81509;BME280;70930;52.412;13.554;2024-03-22T08:46:22;101097.94;;;10.06;76.68
81509;BME280;70930;52.412;13.554;2024-03-22T08:48:49;101101.25;;;10.08;77.61
81509;BME280;70930;52.412;13.554;2024-03-22T08:51:15;101092.66;;;10.15;76.64
81509;BME280;70930;52.412;13.554;2024-03-22T08:53:40;101082.03;;;10.06;77.38
81509;BME280;70930;52.412;13.554;2024-03-22T08:56:06;101078.56;;;10.14;77.98
81509;BME280;70930;52.412;13.554;2024-03-22T08:58:31;101066.66;;;10.26;77.07
81509;BME280;70930;52.412;13.554;2024-03-22T09:00:56;101062.34;;;10.34;76.92
81509;BME280;70930;52.412;13.554;2024-03-22T09:03:22;101060.00;;;10.39;75.68
81509;BME280;70930;52.412;13.554;2024-03-22T09:05:47;101060.16;;;10.29;76.40
81509;BME280;70930;52.412;13.554;2024-03-22T09:08:12;101036.25;;;10.37;76.24
81509;BME280;70930;52.412;13.554;2024-03-22T09:10:38;101055.00;;;10.60;76.30
81509;BME280;70930;52.412;13.554;2024-03-22T09:13:03;101047.38;;;10.41;76.68
81509;BME280;70930;52.412;13.554;2024-03-22T09:15:29;101046.22;;;10.60;76.11
81509;BME280;70930;52.412;13.554;2024-03-22T09:17:54;101035.09;;;10.64;75.61
81509;BME280;70930;52.412;13.554;2024-03-22T09:20:19;101033.75;;;10.68;75.45
81509;BME280;70930;52.412;13.554;2024-03-22T09:22:45;101034.69;;;10.92;74.69
81509;BME280;70930;52.412;13.554;2024-03-22T09:25:11;101025.06;;;10.91;74.95
81509;BME280;70930;52.412;13.554;2024-03-22T09:27:36;101032.72;;;10.86;75.05
81509;BME280;70930;52.412;13.554;2024-03-22T09:30:02;101020.59;;;10.91;74.35
81509;BME280;70930;52.412;13.554;2024-03-22T09:32:29;101031.72;;;10.87;74.43
81509;BME280;70930;52.412;13.554;2024-03-22T09:34:54;101020.47;;;10.85;73.85
81509;BME280;70930;52.412;13.554;2024-03-22T09:37:20;101027.69;;;11.07;75.24
81509;BME280;70930;52.412;13.554;2024-03-22T09:39:45;101030.44;;;11.22;74.08
81509;BME280;70930;52.412;13.554;2024-03-22T09:42:16;101023.97;;;11.24;72.90
81509;BME280;70930;52.412;13.554;2024-03-22T09:44:47;101020.31;;;11.25;72.77
81509;BME280;70930;52.412;13.554;2024-03-22T09:47:14;101010.59;;;11.41;72.69
81509;BME280;70930;52.412;13.554;2024-03-22T09:49:40;101013.50;;;11.54;73.06
81509;BME280;70930;52.412;13.554;2024-03-22T09:52:09;101008.31;;;11.61;73.31
81509;BME280;70930;52.412;13.554;2024-03-22T09:54:37;101005.13;;;11.65;71.87
81509;BME280;70930;52.412;13.554;2024-03-22T09:57:03;101016.53;;;11.74;71.75
81509;BME280;70930;52.412;13.554;2024-03-22T09:59:28;101027.97;;;11.91;70.79
81509;BME280;70930;52.412;13.554;2024-03-22T10:01:54;101014.34;;;11.86;70.85
81509;BME280;70930;52.412;13.554;2024-03-22T10:04:19;101012.44;;;11.71;71.53
81509;BME280;70930;52.412;13.554;2024-03-22T10:06:47;101004.72;;;11.53;71.26
81509;BME280;70930;52.412;13.554;2024-03-22T10:09:12;101001.03;;;11.54;72.01
81509;BME280;70930;52.412;13.554;2024-03-22T10:11:38;100982.69;;;11.68;71.35
81509;BME280;70930;52.412;13.554;2024-03-22T10:14:03;100993.31;;;11.68;71.16
81509;BME280;70930;52.412;13.554;2024-03-22T10:16:39;100995.16;;;11.67;71.49
81509;BME280;70930;52.412;13.554;2024-03-22T10:19:04;101001.25;;;11.76;70.06
81509;BME280;70930;52.412;13.554;2024-03-22T10:21:30;101001.25;;;11.76;71.04
81509;BME280;70930;52.412;13.554;2024-03-22T10:23:56;100992.25;;;11.77;70.85
81509;BME280;70930;52.412;13.554;2024-03-22T10:26:21;100992.94;;;11.71;71.18
81509;BME280;70930;52.412;13.554;2024-03-22T10:28:47;100996.66;;;11.93;70.08
81509;BME280;70930;52.412;13.554;2024-03-22T10:31:13;100988.25;;;12.04;70.38
81509;BME280;70930;52.412;13.554;2024-03-22T10:33:40;100973.16;;;12.19;69.32
81509;BME280;70930;52.412;13.554;2024-03-22T10:36:07;100974.94;;;12.27;70.09
81509;BME280;70930;52.412;13.554;2024-03-22T10:38:33;100977.25;;;12.45;69.60
81509;BME280;70930;52.412;13.554;2024-03-22T10:41:01;100969.44;;;12.43;68.40
81509;BME280;70930;52.412;13.554;2024-03-22T10:43:30;100974.41;;;12.61;68.90
81509;BME280;70930;52.412;13.554;2024-03-22T10:46:00;100956.97;;;12.59;67.10
81509;BME280;70930;52.412;13.554;2024-03-22T10:48:28;100970.00;;;12.39;68.19
81509;BME280;70930;52.412;13.554;2024-03-22T10:50:55;100951.50;;;12.37;68.13
81509;BME280;70930;52.412;13.554;2024-03-22T10:53:25;100954.28;;;12.44;67.95
81509;BME280;70930;52.412;13.554;2024-03-22T10:55:53;100953.66;;;12.57;68.91
81509;BME280;70930;52.412;13.554;2024-03-22T10:58:22;100932.25;;;12.65;67.98
81509;BME280;70930;52.412;13.554;2024-03-22T11:00:51;100957.25;;;12.93;66.74
81509;BME280;70930;52.412;13.554;2024-03-22T11:03:19;100954.75;;;12.92;66.73
81509;BME280;70930;52.412;13.554;2024-03-22T11:05:48;100949.63;;;12.90;65.85
81509;BME280;70930;52.412;13.554;2024-03-22T11:08:23;100925.88;;;13.10;66.56
81509;BME280;70930;52.412;13.554;2024-03-22T11:10:49;100932.28;;;13.31;64.37
81509;BME280;70930;52.412;13.554;2024-03-22T11:13:16;100922.53;;;13.23;64.71
81509;BME280;70930;52.412;13.554;2024-03-22T11:15:41;100913.81;;;13.14;65.89
81509;BME280;70930;52.412;13.554;2024-03-22T11:18:07;100912.66;;;13.38;64.48
81509;BME280;70930;52.412;13.554;2024-03-22T11:20:36;100918.38;;;13.35;65.33
81509;BME280;70930;52.412;13.554;2024-03-22T11:23:03;100906.63;;;13.30;65.18
81509;BME280;70930;52.412;13.554;2024-03-22T11:25:31;100905.56;;;13.45;65.43
81509;BME280;70930;52.412;13.554;2024-03-22T11:27:57;100911.91;;;13.87;65.89
81509;BME280;70930;52.412;13.554;2024-03-22T11:30:24;100895.00;;;13.59;64.65
81509;BME280;70930;52.412;13.554;2024-03-22T11:32:50;100886.25;;;13.65;64.55
81509;BME280;70930;52.412;13.554;2024-03-22T11:35:16;100897.75;;;13.65;64.67
81509;BME280;70930;52.412;13.554;2024-03-22T11:37:41;100887.38;;;13.34;65.37
81509;BME280;70930;52.412;13.554;2024-03-22T11:40:11;100891.44;;;13.30;66.29
81509;BME280;70930;52.412;13.554;2024-03-22T11:42:39;100902.31;;;13.29;65.52
81509;BME280;70930;52.412;13.554;2024-03-22T11:45:07;100892.34;;;13.01;66.40
81509;BME280;70930;52.412;13.554;2024-03-22T11:47:33;100900.50;;;12.99;66.83
81509;BME280;70930;52.412;13.554;2024-03-22T11:49:59;100893.97;;;13.02;68.02
81509;BME280;70930;52.412;13.554;2024-03-22T11:52:28;100887.50;;;13.11;66.98
81509;BME280;70930;52.412;13.554;2024-03-22T11:54:54;100882.28;;;13.03;67.28
81509;BME280;70930;52.412;13.554;2024-03-22T11:57:23;100882.94;;;13.05;66.29
81509;BME280;70930;52.412;13.554;2024-03-22T11:59:50;100889.59;;;12.94;67.63
81509;BME280;70930;52.412;13.554;2024-03-22T12:02:16;100870.69;;;12.74;67.73
81509;BME280;70930;52.412;13.554;2024-03-22T12:04:46;100872.53;;;12.74;67.76
81509;BME280;70930;52.412;13.554;2024-03-22T12:07:16;100858.47;;;12.65;68.26
81509;BME280;70930;52.412;13.554;2024-03-22T12:09:43;100865.09;;;12.69;68.03
81509;BME280;70930;52.412;13.554;2024-03-22T12:12:10;100855.75;;;12.59;68.97
81509;BME280;70930;52.412;13.554;2024-03-22T12:14:36;100870.81;;;12.66;68.92
81509;BME280;70930;52.412;13.554;2024-03-22T12:17:07;100867.56;;;12.71;69.58
81509;BME280;70930;52.412;13.554;2024-03-22T12:19:34;100873.63;;;12.80;70.70
81509;BME280;70930;52.412;13.554;2024-03-22T12:21:59;100862.59;;;12.83;71.60
81509;BME280;70930;52.412;13.554;2024-03-22T12:24:28;100864.09;;;12.70;73.70
81509;BME280;70930;52.412;13.554;2024-03-22T12:26:53;100851.22;;;12.59;74.50
81509;BME280;70930;52.412;13.554;2024-03-22T12:29:19;100862.81;;;12.66;76.39
81509;BME280;70930;52.412;13.554;2024-03-22T12:31:46;100830.50;;;12.55;75.84
81509;BME280;70930;52.412;13.554;2024-03-22T12:34:12;100840.00;;;12.64;76.40
81509;BME280;70930;52.412;13.554;2024-03-22T12:36:37;100835.53;;;12.49;78.80
81509;BME280;70930;52.412;13.554;2024-03-22T12:39:03;100843.09;;;12.46;79.72
81509;BME280;70930;52.412;13.554;2024-03-22T12:41:28;100839.03;;;12.35;79.98